Time;durP1;ratioP1;P1;durP2;ratioP2;P2;SDS_P1;SDS_P2;PMS_P1;PMS_P2;Temp;Humidity;BMP_temperature;BMP_pressure;BME280_temperature;BME280_humidity;BME280_pressure;Samples;Min_cycle;Max_cycle;Signal;HPM_P1;HPM_P2
2021/01/03 00:02:22;;;;;;;8.70;4.63;;;;;;;3.12;75.91;99956.97;4956726;28;20054;-65
2021/01/03 00:05:08;;;;;;;10.82;5.68;;;;;;;3.11;76.00;99949.97;4958166;29;20483;-66
2021/01/03 00:07:52;;;;;;;5.30;3.97;;;;;;;3.11;75.71;99947.34;4957970;29;20070;-65
2021/01/03 00:10:36;;;;;;;6.32;3.72;;;;;;;3.10;75.22;99950.94;4957733;29;20560;-66
2021/01/03 00:13:20;;;;;;;4.57;3.72;;;;;;;3.10;75.52;99945.66;4957924;29;20065;-65
2021/01/03 00:16:05;;;;;;;4.82;3.67;;;;;;;3.10;76.03;99940.41;4957737;29;20463;-66
2021/01/03 00:18:48;;;;;;;4.55;3.72;;;;;;;3.05;74.80;99942.53;4943319;29;20504;-66
2021/01/03 00:21:33;;;;;;;3.80;3.38;;;;;;;3.14;74.41;99939.25;4945483;29;20046;-66
2021/01/03 00:24:16;;;;;;;3.85;3.10;;;;;;;3.10;75.01;99929.88;4957594;29;20110;-67
2021/01/03 00:27:00;;;;;;;5.40;3.67;;;;;;;3.12;75.17;99931.44;4956833;29;20590;-66
2021/01/03 00:29:44;;;;;;;6.20;4.38;;;;;;;3.07;74.86;99932.72;4956432;29;20563;-67
2021/01/03 00:32:28;;;;;;;4.88;3.90;;;;;;;3.07;75.47;99936.22;4957450;29;20134;-67
2021/01/03 00:35:25;;;;;;;4.47;3.60;;;;;;;3.06;76.31;99931.03;4956399;29;20054;-67
2021/01/03 00:38:11;;;;;;;5.10;3.85;;;;;;;3.02;77.29;99929.56;4956489;29;20062;-67
2021/01/03 00:40:55;;;;;;;5.50;3.95;;;;;;;3.02;77.84;99927.75;4956040;29;20062;-67
2021/01/03 00:43:39;;;;;;;7.05;4.30;;;;;;;3.02;76.30;99929.56;4956214;29;20525;-67
2021/01/03 00:46:23;;;;;;;5.75;4.13;;;;;;;3.10;76.54;99927.22;4957240;29;20572;-67
2021/01/03 00:49:08;;;;;;;6.18;4.10;;;;;;;3.06;77.47;99923.13;4956240;29;20102;-65
2021/01/03 00:51:52;;;;;;;6.95;4.20;;;;;;;3.02;77.85;99921.69;4956483;29;20050;-67
2021/01/03 00:54:36;;;;;;;;;;;;;;;3.01;77.74;99925.22;4943111;29;20062;-66
2021/01/03 00:57:20;;;;;;;4.82;3.95;;;;;;;2.96;77.73;99922.94;4969472;28;19938;-67
2021/01/03 01:00:08;;;;;;;5.32;4.00;;;;;;;2.97;78.23;99919.34;4957259;29;20220;-67
2021/01/03 01:02:52;;;;;;;5.63;4.40;;;;;;;2.94;78.42;99922.19;4955842;29;20062;-66
2021/01/03 01:05:36;;;;;;;7.28;4.72;;;;;;;2.91;78.77;99925.03;4956134;29;20050;-66
2021/01/03 01:08:21;;;;;;;6.80;4.68;;;;;;;2.87;79.17;99922.72;4956974;29;20090;-67
2021/01/03 01:11:06;;;;;;;5.95;4.45;;;;;;;2.91;79.13;99922.41;4942400;29;20054;-66
2021/01/03 01:13:50;;;;;;;6.65;4.63;;;;;;;2.91;79.61;99932.94;4955026;28;20054;-67
2021/01/03 01:16:35;;;;;;;7.03;4.60;;;;;;;2.91;80.21;99930.28;4955836;29;20073;-66
2021/01/03 01:19:21;;;;;;;7.03;4.68;;;;;;;2.82;80.88;99933.53;4955639;29;20102;-67
2021/01/03 01:22:05;;;;;;;7.75;5.03;;;;;;;2.77;81.06;99937.44;4956550;29;20153;-66
2021/01/03 01:24:49;;;;;;;8.75;5.85;;;;;;;2.80;81.97;99934.59;4956711;29;20050;-67
2021/01/03 01:27:33;;;;;;;7.93;5.88;;;;;;;2.81;82.60;99938.91;4955558;29;20468;-67
2021/01/03 01:30:18;;;;;;;7.93;5.50;;;;;;;2.78;82.90;99933.84;4955424;29;20081;-67
2021/01/03 01:33:02;;;;;;;9.63;6.43;;;;;;;2.80;83.41;99937.22;4955607;29;20050;-67
2021/01/03 01:35:47;;;;;;;10.30;6.15;;;;;;;2.77;83.62;99933.03;4955475;29;20102;-67
2021/01/03 01:38:31;;;;;;;8.95;6.72;;;;;;;2.72;84.06;99934.28;4955698;29;20046;-67
2021/01/03 01:41:16;;;;;;;17.25;7.18;;;;;;;2.77;84.48;99953.22;4955236;29;20054;-67
2021/01/03 01:43:59;;;;;;;12.80;6.90;;;;;;;2.81;84.66;99938.91;4956385;29;20065;-67
2021/01/03 01:46:50;;;;;;;11.50;7.10;;;;;;;2.77;85.46;99937.44;4956354;29;20147;-67
2021/01/03 01:49:38;;;;;;;18.38;7.45;;;;;;;2.76;85.88;99941.03;4954862;29;20114;-67
2021/01/03 01:52:25;;;;;;;14.80;7.88;;;;;;;2.81;85.91;99934.50;4955190;29;20499;-67
2021/01/03 01:55:14;;;;;;;14.77;9.32;;;;;;;2.75;86.16;99940.16;4955201;29;20129;-66
2021/01/03 01:58:03;;;;;;;13.90;8.45;;;;;;;2.73;87.09;99938.59;4955103;29;20048;-66
2021/01/03 02:00:53;;;;;;;14.73;8.95;;;;;;;2.84;87.31;99933.44;4954766;29;20042;-67
2021/01/03 02:03:51;;;;;;;13.90;8.82;;;;;;;2.80;87.27;99932.81;4954784;29;20046;-66
2021/01/03 02:06:41;;;;;;;13.52;8.82;;;;;;;2.80;87.71;99935.44;4956213;29;20058;-67
2021/01/03 02:09:35;;;;;;;15.32;9.05;;;;;;;2.79;87.58;99935.53;4954690;29;20106;-67
2021/01/03 02:12:47;;;;;;;14.20;9.52;;;;;;;2.76;87.91;99933.13;4941550;29;20094;-66
2021/01/03 02:15:32;;;;;;;13.93;9.48;;;;;;;2.73;88.05;99935.97;4954477;29;20532;-67
2021/01/03 02:18:17;;;;;;;17.85;11.02;;;;;;;2.65;88.57;99939.09;4954455;29;20053;-67
2021/01/03 02:21:22;;;;;;;15.70;10.02;;;;;;;2.67;89.50;99939.84;4954524;29;20109;-66
2021/01/03 02:24:12;;;;;;;18.95;10.93;;;;;;;2.64;89.73;99937.41;4955180;28;20054;-66
2021/01/03 02:27:21;;;;;;;17.98;10.57;;;;;;;2.68;89.95;99927.53;4955135;29;20046;-67
2021/01/03 02:30:07;;;;;;;18.25;11.07;;;;;;;2.71;89.63;99929.97;4954042;29;20053;-67
2021/01/03 02:33:05;;;;;;;20.45;11.68;;;;;;;2.69;90.41;99934.47;4954351;29;20050;-67
2021/01/03 02:35:51;;;;;;;19.80;11.13;;;;;;;2.70;89.89;99931.75;4954226;29;20049;-67
2021/01/03 02:38:39;;;;;;;18.83;11.27;;;;;;;2.68;89.87;99933.66;4954326;29;20511;-67
2021/01/03 02:41:23;;;;;;;18.45;11.23;;;;;;;2.65;90.01;99925.94;4967340;28;20054;-67
2021/01/03 02:44:07;;;;;;;20.05;11.57;;;;;;;2.70;89.81;99925.63;4954282;29;20419;-67
2021/01/03 02:46:55;;;;;;;19.77;11.30;;;;;;;2.63;90.34;99919.94;4953879;29;20053;-67
2021/01/03 02:49:39;;;;;;;16.83;11.05;;;;;;;2.58;90.36;99922.06;4954834;29;20106;-67
2021/01/03 02:52:28;;;;;;;19.13;11.77;;;;;;;2.65;89.71;99925.13;4954075;29;20436;-67
2021/01/03 02:55:15;;;;;;;19.88;11.57;;;;;;;2.65;90.03;99925.13;4955109;29;20042;-66
2021/01/03 02:57:59;;;;;;;23.65;11.07;;;;;;;2.62;90.43;99920.88;4954942;29;20093;-66
2021/01/03 03:00:43;;;;;;;20.35;11.30;;;;;;;2.63;89.52;99927.00;4954862;29;20109;-66
2021/01/03 03:03:27;;;;;;;17.85;10.70;;;;;;;2.58;90.28;99915.94;4954844;29;20150;-67
2021/01/03 03:06:11;;;;;;;19.75;11.63;;;;;;;2.58;90.78;99915.94;4954734;29;20054;-66
2021/01/03 03:08:55;;;;;;;22.17;11.93;;;;;;;2.60;90.07;99912.25;4953886;29;20097;-67
2021/01/03 03:11:44;;;;;;;19.02;10.93;;;;;;;2.56;90.51;99918.69;4954558;29;20487;-66
2021/01/03 03:14:28;;;;;;;19.50;11.02;;;;;;;2.59;90.76;99912.34;4953482;29;20077;-66
2021/01/03 03:17:13;;;;;;;18.60;11.73;;;;;;;2.58;90.90;99910.66;4954859;29;20098;-66
2021/01/03 03:19:56;;;;;;;20.42;11.23;;;;;;;2.56;90.98;99912.56;4953486;29;20054;-66
2021/01/03 03:22:40;;;;;;;20.80;11.55;;;;;;;2.54;90.79;99920.56;4954546;29;20374;-67
2021/01/03 03:25:24;;;;;;;18.50;10.75;;;;;;;2.60;90.27;99911.41;4954464;29;20505;-67
2021/01/03 03:28:08;;;;;;;17.63;10.63;;;;;;;2.62;89.80;99906.91;4953369;29;20058;-66
2021/01/03 03:30:52;;;;;;;17.20;10.82;;;;;;;2.67;89.02;99907.41;4954444;29;20051;-66
2021/01/03 03:33:37;;;;;;;17.90;10.85;;;;;;;2.64;88.87;99905.00;4954220;29;20097;-67
2021/01/03 03:36:21;;;;;;;19.45;11.02;;;;;;;2.60;89.45;99907.00;4954519;28;20424;-66
2021/01/03 03:39:04;;;;;;;17.35;11.13;;;;;;;2.55;89.64;99911.75;4958407;29;20050;-67
2021/01/03 03:41:48;;;;;;;20.08;11.50;;;;;;;2.58;90.48;99915.94;5045826;22;20092;-68
2021/01/03 03:44:33;;;;;;;19.42;11.13;;;;;;;2.57;89.63;99914.25;5021428;28;20560;-68
2021/01/03 03:47:17;;;;;;;21.30;11.63;;;;;;;2.50;90.65;99907.69;5021565;28;20099;-68
2021/01/03 03:50:01;;;;;;;20.10;11.43;;;;;;;2.49;90.33;99906.03;5036525;28;20053;-68
2021/01/03 03:52:45;;;;;;;17.75;10.65;;;;;;;2.48;89.98;99901.72;5021370;28;20048;-69
2021/01/03 03:55:28;;;;;;;20.25;10.70;;;;;;;2.52;89.35;99900.56;5007561;28;20056;-68
2021/01/03 03:58:12;;;;;;;;;;;;;;;2.50;88.84;99897.19;5036680;28;20466;-69
2021/01/03 04:00:57;;;;;;;20.10;11.65;;;;;;;2.50;89.71;99897.19;5036113;28;19966;-67
2021/01/03 04:03:41;;;;;;;21.38;11.82;;;;;;;2.42;89.62;99900.34;5036326;28;20147;-68
2021/01/03 04:06:26;;;;;;;20.30;11.35;;;;;;;2.43;89.35;99896.75;5020957;28;20056;-68
2021/01/03 04:09:12;;;;;;;17.65;11.18;;;;;;;2.45;89.02;99901.91;5021094;28;20195;-68
2021/01/03 04:11:56;;;;;;;19.50;11.40;;;;;;;2.42;89.43;99898.66;5035917;28;20174;-68
2021/01/03 04:14:41;;;;;;;17.05;10.82;;;;;;;2.44;88.42;99889.72;5036266;28;20132;-68
2021/01/03 04:17:25;;;;;;;18.42;11.10;;;;;;;2.47;88.64;99893.94;5035811;28;20091;-68
2021/01/03 04:20:17;;;;;;;18.15;11.27;;;;;;;2.44;88.60;99893.16;5035814;28;20095;-68
2021/01/03 04:23:05;;;;;;;16.80;10.65;;;;;;;2.43;88.44;99895.94;5020970;28;20124;-68
2021/01/03 04:25:49;;;;;;;19.25;11.00;;;;;;;2.44;88.77;99893.16;5020552;28;20075;-68
2021/01/03 04:28:33;;;;;;;18.05;10.40;;;;;;;2.46;88.17;99900.97;5020828;28;20424;-68
2021/01/03 04:31:17;;;;;;;;;;;;;;;2.39;88.11;99894.44;5007172;28;20156;-68
2021/01/03 04:34:01;;;;;;;20.80;11.82;;;;;;;2.40;88.59;99895.28;5020558;28;20149;-68
2021/01/03 04:36:47;;;;;;;;;;;;;;;2.38;88.67;99886.66;5020826;28;20079;-68
2021/01/03 04:39:32;;;;;;;17.20;10.55;;;;;;;2.35;88.83;99892.97;5035375;28;19920;-68
2021/01/03 04:42:22;;;;;;;18.77;10.95;;;;;;;2.41;88.53;99892.56;5020411;28;20410;-68
2021/01/03 04:45:16;;;;;;;20.38;11.57;;;;;;;2.34;89.41;99901.78;5020246;28;20145;-68
2021/01/03 04:48:03;;;;;;;17.45;10.73;;;;;;;2.28;90.15;99890.84;5019210;28;20190;-68
2021/01/03 04:50:50;;;;;;;18.23;11.05;;;;;;;2.34;90.01;99893.91;5035160;28;20115;-68
2021/01/03 04:53:34;;;;;;;19.00;11.98;;;;;;;2.31;90.39;99893.25;5035411;28;20136;-68
2021/01/03 04:56:45;;;;;;;18.10;11.75;;;;;;;2.32;90.53;99895.81;5035139;28;20051;-68
2021/01/03 04:59:40;;;;;;;19.77;11.85;;;;;;;2.33;90.03;99900.13;5020117;28;20183;-68
2021/01/03 05:02:44;;;;;;;20.63;12.18;;;;;;;2.29;90.65;99900.41;5035202;28;20485;-68
2021/01/03 05:05:38;;;;;;;19.27;11.38;;;;;;;2.33;90.22;99896.63;5020134;28;20106;-68
2021/01/03 05:08:31;;;;;;;19.83;11.95;;;;;;;2.35;90.22;99903.47;5006209;28;20047;-69
2021/01/03 05:11:19;;;;;;;18.70;11.27;;;;;;;2.30;90.83;99897.69;5020375;28;20072;-68
2021/01/03 05:14:14;;;;;;;18.48;11.52;;;;;;;2.22;91.92;99912.28;5005998;28;20044;-68
2021/01/03 05:16:58;;;;;;;19.88;11.38;;;;;;;2.24;92.64;99916.50;5034838;28;20045;-68
2021/01/03 05:19:42;;;;;;;22.08;12.73;;;;;;;2.27;93.18;99903.13;5034931;28;20048;-68
2021/01/03 05:22:30;;;;;;;17.58;11.90;;;;;;;2.26;93.71;99914.59;5019929;28;20103;-69
2021/01/03 05:25:17;;;;;;;20.45;12.82;;;;;;;2.23;94.21;99909.56;5019665;28;20049;-68
2021/01/03 05:28:04;;;;;;;21.60;12.60;;;;;;;2.26;94.43;99909.34;5019705;28;20052;-68
2021/01/03 05:30:48;;;;;;;17.83;11.57;;;;;;;2.21;95.78;99911.44;5034451;28;20458;-68
2021/01/03 05:33:31;;;;;;;21.65;12.23;;;;;;;2.20;96.13;99909.75;5034624;28;20386;-68
2021/01/03 05:36:36;;;;;;;20.88;12.50;;;;;;;2.12;97.10;99921.72;5034638;28;20061;-68
2021/01/03 05:39:20;;;;;;;;;;;;;;;2.03;98.68;99911.78;5035052;28;20049;-68
2021/01/03 05:42:19;;;;;;;22.63;13.93;;;;;;;1.99;99.49;99919.03;5034292;28;19982;-67
2021/01/03 05:45:06;;;;;;;22.77;14.05;;;;;;;1.97;99.80;99926.16;5034560;28;20100;-65
2021/01/03 05:48:17;;;;;;;25.92;14.30;;;;;;;1.86;100.00;99920.75;5034365;28;20394;-68
2021/01/03 05:51:02;;;;;;;24.20;14.88;;;;;;;1.84;100.00;99925.28;5034049;28;20143;-68
2021/01/03 05:53:46;;;;;;;25.88;14.27;;;;;;;1.79;100.00;99930.00;5034314;28;20084;-68
2021/01/03 05:56:31;;;;;;;23.67;14.43;;;;;;;1.76;100.00;99924.91;5019257;28;20083;-68
2021/01/03 05:59:27;;;;;;;22.83;13.80;;;;;;;1.73;100.00;99927.75;5005010;28;20075;-68
2021/01/03 06:02:18;;;;;;;24.23;14.32;;;;;;;1.75;100.00;99925.88;5019033;28;20047;-68
2021/01/03 06:05:07;;;;;;;25.95;14.07;;;;;;;1.76;100.00;99932.81;5018804;28;20076;-68
2021/01/03 06:08:01;;;;;;;22.02;13.95;;;;;;;1.73;100.00;99930.38;5019108;28;20052;-68
2021/01/03 06:10:45;;;;;;;24.33;15.02;;;;;;;1.73;100.00;99929.53;5018947;28;20087;-68
2021/01/03 06:13:30;;;;;;;24.23;14.52;;;;;;;1.69;100.00;99935.91;5033925;28;20048;-68
2021/01/03 06:16:15;;;;;;;23.33;14.25;;;;;;;1.69;100.00;99934.16;5033687;28;20126;-67
2021/01/03 06:19:02;;;;;;;27.42;14.82;;;;;;;1.70;100.00;99938.47;5018899;28;20409;-68
2021/01/03 06:21:46;;;;;;;27.77;14.55;;;;;;;1.71;100.00;99945.41;5033450;28;20433;-68
2021/01/03 06:24:30;;;;;;;25.05;15.05;;;;;;;1.72;100.00;99938.34;5033516;28;20048;-68
2021/01/03 06:27:29;;;;;;;25.42;15.35;;;;;;;1.70;100.00;99935.84;5018730;28;20517;-68
2021/01/03 06:30:15;;;;;;;23.52;14.25;;;;;;;1.68;100.00;99936.88;5018504;28;20064;-68
2021/01/03 06:33:27;;;;;;;25.20;14.68;;;;;;;1.68;100.00;99932.44;5033420;28;20159;-68
2021/01/03 06:36:17;;;;;;;27.92;14.60;;;;;;;1.66;100.00;99936.94;5018204;28;20068;-67
2021/01/03 06:39:07;;;;;;;23.38;13.70;;;;;;;1.64;100.00;99930.94;5018525;28;20052;-66
2021/01/03 06:41:54;;;;;;;27.17;15.02;;;;;;;1.64;100.00;99932.75;5017980;28;20041;-68
2021/01/03 06:44:48;;;;;;;24.58;14.13;;;;;;;1.59;100.00;99933.03;5018397;28;20571;-68
2021/01/03 06:47:48;;;;;;;24.10;14.88;;;;;;;1.56;100.00;99938.47;5018236;28;20099;-67
2021/01/03 06:50:54;;;;;;;24.38;14.68;;;;;;;1.52;100.00;99942.25;5033103;28;20052;-68
2021/01/03 06:53:56;;;;;;;26.15;15.23;;;;;;;1.53;100.00;99933.41;5033527;28;20092;-68
2021/01/03 06:57:10;;;;;;;25.92;14.90;;;;;;;1.51;100.00;99940.56;5033403;28;20096;-68
2021/01/03 06:59:58;;;;;;;25.25;15.25;;;;;;;1.49;100.00;99937.19;5032509;28;20173;-68
2021/01/03 07:02:55;;;;;;;28.80;16.63;;;;;;;1.50;100.00;99938.88;5018112;28;20048;-68
2021/01/03 07:05:51;;;;;;;25.60;14.55;;;;;;;1.47;100.00;99939.03;5017844;28;20182;-68
2021/01/03 07:08:41;;;;;;;28.80;16.63;;;;;;;1.45;100.00;99935.66;5017971;28;20458;-68
2021/01/03 07:11:49;;;;;;;28.40;16.58;;;;;;;1.46;100.00;99939.97;5017170;28;20048;-68
2021/01/03 07:14:33;;;;;;;30.83;17.38;;;;;;;1.44;100.00;99936.63;5017783;28;20048;-68
2021/01/03 07:17:26;;;;;;;26.95;17.17;;;;;;;1.47;100.00;99951.34;5032674;28;20128;-67
2021/01/03 07:20:11;;;;;;;26.45;17.02;;;;;;;1.46;100.00;99937.34;5017779;28;20060;-68
2021/01/03 07:23:04;;;;;;;32.10;18.10;;;;;;;1.43;100.00;99937.56;5003753;28;20064;-68
2021/01/03 07:25:53;;;;;;;30.05;18.50;;;;;;;1.45;100.00;99934.84;5017619;28;20040;-68
2021/01/03 07:28:37;;;;;;;28.13;16.27;;;;;;;1.47;100.00;99939.03;5003636;28;20422;-68
2021/01/03 07:31:23;;;;;;;28.58;16.92;;;;;;;1.44;100.00;99941.88;5017436;28;20057;-68
2021/01/03 07:34:13;;;;;;;28.08;17.00;;;;;;;1.47;100.00;99944.28;5032726;28;20469;-66
2021/01/03 07:37:19;;;;;;;33.67;18.58;;;;;;;1.51;100.00;99948.44;5017475;28;20048;-68
2021/01/03 07:40:06;;;;;;;29.15;17.25;;;;;;;1.50;100.00;99941.50;5017420;28;20056;-68
2021/01/03 07:42:49;;;;;;;30.85;17.23;;;;;;;1.48;100.00;99951.25;5032385;28;20463;-68
2021/01/03 07:45:33;;;;;;;29.50;17.58;;;;;;;1.56;100.00;99948.97;5032656;28;20386;-67
2021/01/03 07:48:47;;;;;;;;;;;;;;;;;;;;;
2021/01/03 07:51:43;;;;;;;32.35;18.35;;;;;;;1.65;100.00;99948.41;5018736;28;20052;-68
2021/01/03 07:54:27;;;;;;;33.03;18.20;;;;;;;1.71;100.00;99952.44;5017490;28;20052;-68
2021/01/03 07:57:11;;;;;;;32.13;18.55;;;;;;;1.72;100.00;99952.34;5017311;28;20417;-67
2021/01/03 07:59:57;;;;;;;30.50;17.30;;;;;;;1.73;100.00;99951.41;5032396;28;20064;-68
2021/01/03 08:02:42;;;;;;;28.55;16.70;;;;;;;1.77;100.00;99952.88;5017440;28;20091;-67
2021/01/03 08:05:26;;;;;;;30.92;18.30;;;;;;;1.80;100.00;99951.84;5032301;28;20060;-67
2021/01/03 08:08:17;;;;;;;30.95;18.52;;;;;;;1.81;100.00;99951.75;5017189;28;20052;-68
2021/01/03 08:11:20;;;;;;;30.48;17.73;;;;;;;1.86;100.00;99952.31;5032474;28;20084;-68
2021/01/03 08:14:08;;;;;;;28.10;16.67;;;;;;;1.87;100.00;99955.78;5032234;28;20052;-68
2021/01/03 08:16:58;;;;;;;26.85;16.33;;;;;;;1.97;100.00;99955.09;5017275;28;20466;-67
2021/01/03 08:19:42;;;;;;;31.08;17.38;;;;;;;2.01;100.00;99956.59;5017256;28;20056;-68
2021/01/03 08:22:28;;;;;;;30.90;18.25;;;;;;;2.06;100.00;99959.75;5018434;28;20051;-68
2021/01/03 08:25:22;;;;;;;29.45;18.30;;;;;;;2.15;100.00;99964.44;5020943;28;20087;-68
2021/01/03 08:28:09;;;;;;;30.13;17.13;;;;;;;2.23;100.00;99962.16;5007065;28;20083;-67
2021/01/03 08:30:53;;;;;;;29.83;17.02;;;;;;;2.31;100.00;99965.13;5020570;28;20123;-64
2021/01/03 08:33:40;;;;;;;34.97;18.45;;;;;;;2.38;100.00;99971.66;5035804;28;20075;-68
2021/01/03 08:36:32;;;;;;;33.80;19.60;;;;;;;2.36;100.00;99967.47;5035682;28;20049;-68
2021/01/03 08:39:16;;;;;;;33.30;18.80;;;;;;;2.39;100.00;99968.09;5020747;28;20107;-68
2021/01/03 08:42:03;;;;;;;32.50;18.02;;;;;;;2.43;100.00;99964.31;5020589;28;20497;-68
2021/01/03 08:44:53;;;;;;;33.90;18.15;;;;;;;2.44;100.00;99969.47;5020623;28;20048;-67
2021/01/03 08:47:38;;;;;;;33.25;18.42;;;;;;;2.47;100.00;99971.06;5020188;28;20509;-67
2021/01/03 08:50:26;;;;;;;34.85;19.20;;;;;;;2.55;100.00;99968.78;5020187;28;20410;-67
2021/01/03 08:53:19;;;;;;;31.58;19.13;;;;;;;2.62;100.00;99983.22;5020654;28;20103;-67
2021/01/03 08:56:14;;;;;;;32.95;19.55;;;;;;;2.65;100.00;99978.56;5034983;28;20040;-68
2021/01/03 08:58:58;;;;;;;33.72;18.70;;;;;;;2.71;100.00;99974.72;5019854;28;20116;-65
2021/01/03 09:01:42;;;;;;;27.80;17.25;;;;;;;2.73;100.00;99984.19;5006016;28;20056;-68
2021/01/03 09:04:26;;;;;;;28.35;17.40;;;;;;;2.71;100.00;99987.88;5019981;28;20052;-67
2021/01/03 09:07:13;;;;;;;28.67;17.67;;;;;;;2.70;100.00;99988.78;5035140;28;20052;-67
2021/01/03 09:10:01;;;;;;;28.60;17.25;;;;;;;2.67;100.00;99989.00;5034870;28;20055;-67
2021/01/03 09:12:45;;;;;;;28.15;16.55;;;;;;;2.60;100.00;99999.09;5019961;28;20088;-67
2021/01/03 09:15:30;;;;;;;30.10;18.45;;;;;;;2.57;100.00;99996.69;5019675;28;20056;-67
2021/01/03 09:18:24;;;;;;;30.30;18.38;;;;;;;2.55;100.00;100001.19;5034919;28;20103;-68
2021/01/03 09:21:11;;;;;;;35.05;21.25;;;;;;;2.56;100.00;100009.91;5019447;28;20040;-67
2021/01/03 09:24:23;;;;;;;33.47;19.23;;;;;;;2.50;100.00;99997.16;5019637;28;20056;-67
2021/01/03 09:27:09;;;;;;;32.13;18.33;;;;;;;2.53;100.00;100007.50;5019485;28;20083;-67
2021/01/03 09:30:25;;;;;;;29.83;18.10;;;;;;;2.55;100.00;100008.25;5034365;28;20126;-67
2021/01/03 09:33:24;;;;;;;32.33;18.60;;;;;;;2.58;100.00;100002.75;5034848;28;20048;-67
2021/01/03 09:36:33;;;;;;;29.70;17.83;;;;;;;2.61;100.00;100007.84;5034143;28;20040;-66
2021/01/03 09:39:31;;;;;;;25.00;15.82;;;;;;;2.61;100.00;100005.22;5034614;28;20056;-67
2021/01/03 09:42:32;;;;;;;25.80;15.80;;;;;;;2.61;100.00;100010.47;5027938;23;20053;-67
2021/01/03 09:45:29;;;;;;;24.70;15.30;;;;;;;2.61;100.00;100005.22;5019190;28;20049;-68
2021/01/03 09:48:47;;;;;;;25.65;15.45;;;;;;;2.63;100.00;100008.59;5019132;28;20478;-67
2021/01/03 09:51:47;;;;;;;27.73;16.13;;;;;;;2.66;100.00;100013.63;5034032;28;20056;-67
2021/01/03 09:54:55;;;;;;;25.90;15.15;;;;;;;2.70;100.00;100012.47;5019373;28;20120;-68
2021/01/03 09:57:44;;;;;;;29.25;15.95;;;;;;;2.76;100.00;100009.47;5030854;28;20419;-65
2021/01/03 10:00:50;;;;;;;26.27;14.77;;;;;;;2.79;100.00;100002.19;5018880;28;20040;-67
2021/01/03 10:03:33;;;;;;;22.33;14.68;;;;;;;2.83;100.00;100008.13;5034093;28;20056;-67
2021/01/03 10:06:33;;;;;;;23.50;14.52;;;;;;;2.89;100.00;100005.06;5033951;28;20486;-68
2021/01/03 10:09:23;;;;;;;27.98;15.07;;;;;;;2.88;100.00;100006.00;5033650;28;20079;-66
2021/01/03 10:12:38;;;;;;;25.10;15.60;;;;;;;2.87;100.00;100010.44;5033755;28;20060;-67
2021/01/03 10:15:22;;;;;;;27.10;15.77;;;;;;;2.93;100.00;100007.38;5012700;28;20406;-68
2021/01/03 10:18:09;;;;;;;26.67;14.82;;;;;;;2.95;100.00;100010.75;5033830;28;20422;-67
2021/01/03 10:20:54;;;;;;;23.52;15.10;;;;;;;2.94;99.55;100013.50;5018937;28;20044;-68
2021/01/03 10:23:40;;;;;;;26.92;15.10;;;;;;;2.86;98.72;100007.91;5004716;28;20520;-68
2021/01/03 10:26:33;;;;;;;26.17;15.98;;;;;;;2.80;99.48;100003.03;5018669;28;20500;-67
2021/01/03 10:29:17;;;;;;;29.40;14.97;;;;;;;2.90;98.94;100012.84;5004553;28;20579;-67
2021/01/03 10:32:02;;;;;;;29.20;15.88;;;;;;;2.75;99.94;100000.69;5033391;28;20094;-67
2021/01/03 10:34:46;;;;;;;27.85;15.27;;;;;;;2.73;100.00;99999.13;5033305;28;20413;-67
2021/01/03 10:37:30;;;;;;;26.80;15.70;;;;;;;2.76;100.00;100001.56;5004695;28;20103;-68
2021/01/03 10:40:15;;;;;;;29.67;16.33;;;;;;;2.84;100.00;99999.25;5033176;28;20040;-67
2021/01/03 10:42:59;;;;;;;35.45;15.85;;;;;;;2.90;100.00;100001.47;5032991;28;20048;-66
2021/01/03 10:45:43;;;;;;;31.52;16.15;;;;;;;2.94;100.00;100002.97;5032351;28;20048;-67
2021/01/03 10:48:27;;;;;;;28.55;14.35;;;;;;;3.02;100.00;99998.03;5033538;28;20414;-67
2021/01/03 10:51:11;;;;;;;26.50;15.48;;;;;;;3.12;100.00;99999.94;5018034;28;20052;-66
2021/01/03 10:53:55;;;;;;;24.45;15.45;;;;;;;3.18;100.00;99996.88;5033232;28;20056;-67
2021/01/03 10:56:39;;;;;;;25.52;15.23;;;;;;;3.21;100.00;99994.03;5018259;28;20508;-68
2021/01/03 10:59:24;;;;;;;25.60;15.50;;;;;;;3.27;100.00;99980.47;5032852;28;20052;-65
2021/01/03 11:02:08;;;;;;;26.25;15.80;;;;;;;3.33;100.00;99987.09;5018013;28;20076;-68
2021/01/03 11:04:52;;;;;;;24.25;15.52;;;;;;;3.34;100.00;99986.97;5018110;28;20131;-68
2021/01/03 11:07:37;;;;;;;27.13;15.88;;;;;;;3.39;99.99;99984.00;5017796;28;20567;-66
2021/01/03 11:10:21;;;;;;;28.23;14.93;;;;;;;3.43;99.40;99980.25;5032887;28;20117;-68
2021/01/03 11:13:05;;;;;;;27.90;15.13;;;;;;;3.42;97.61;99973.25;5017923;28;20057;-67
2021/01/03 11:15:49;;;;;;;26.15;15.05;;;;;;;3.39;97.86;99973.47;5032706;28;20053;-67
2021/01/03 11:18:33;;;;;;;26.75;14.60;;;;;;;3.46;98.77;99966.84;5032892;28;20059;-67
2021/01/03 11:21:18;;;;;;;28.35;14.70;;;;;;;3.51;99.35;99972.63;5032717;28;20095;-66
2021/01/03 11:24:03;;;;;;;26.30;15.25;;;;;;;3.58;99.48;99974.75;5032795;28;20135;-66
2021/01/03 11:26:47;;;;;;;27.98;15.80;;;;;;;3.67;99.00;99962.69;5017733;28;20123;-68
2021/01/03 11:29:31;;;;;;;28.85;16.60;;;;;;;3.68;96.59;99969.66;5004148;28;20049;-67
2021/01/03 11:32:19;;;;;;;26.30;14.52;;;;;;;3.73;96.68;99967.50;5032683;28;20409;-68
2021/01/03 11:35:03;;;;;;;29.00;15.43;;;;;;;3.82;96.32;99967.72;5032775;28;20194;-68
2021/01/03 11:37:48;;;;;;;23.95;14.48;;;;;;;3.84;96.50;99967.63;5032739;28;20052;-67
2021/01/03 11:40:32;;;;;;;24.77;15.30;;;;;;;3.92;94.92;99959.97;5032381;28;20044;-68
2021/01/03 11:43:16;;;;;;;25.55;16.02;;;;;;;3.89;95.76;99968.97;5003858;28;20099;-67
2021/01/03 11:46:00;;;;;;;29.83;16.30;;;;;;;3.94;96.24;99955.47;5032301;28;20099;-66
2021/01/03 11:48:44;;;;;;;28.65;18.25;;;;;;;3.96;96.90;99958.84;5032377;28;20464;-66
2021/01/03 11:51:28;;;;;;;27.58;16.20;;;;;;;3.98;96.42;99957.75;5017413;28;20063;-67
2021/01/03 11:54:12;;;;;;;27.38;16.60;;;;;;;3.93;96.01;99943.22;5032500;28;20052;-67
2021/01/03 11:56:57;;;;;;;27.95;16.38;;;;;;;3.90;97.35;99951.34;5017688;28;20414;-67
2021/01/03 11:59:42;;;;;;;30.73;18.35;;;;;;;3.87;97.92;99948.94;5021243;28;20505;-67
2021/01/03 12:02:28;;;;;;;31.38;19.20;;;;;;;3.87;98.05;99949.75;5036207;28;20099;-66
2021/01/03 12:05:17;;;;;;;27.15;16.48;;;;;;;3.90;97.87;99949.56;5036071;28;20056;-66
2021/01/03 12:08:01;;;;;;;26.77;16.98;;;;;;;3.86;97.18;99950.72;5021229;28;20088;-67
2021/01/03 12:10:45;;;;;;;33.72;18.80;;;;;;;3.86;97.08;99950.72;5036067;28;20160;-67
2021/01/03 12:13:29;;;;;;;35.42;21.13;;;;;;;3.82;97.58;99954.53;5021039;28;20579;-66
2021/01/03 12:16:21;;;;;;;26.58;17.10;;;;;;;3.86;96.99;99952.53;5020912;28;20056;-67
2021/01/03 12:19:05;;;;;;;25.08;16.38;;;;;;;3.79;96.46;99946.84;5020805;28;20045;-67
2021/01/03 12:21:50;;;;;;;31.45;19.92;;;;;;;3.83;97.47;99958.84;5036015;28;20075;-67
2021/01/03 12:24:34;;;;;;;34.20;19.40;;;;;;;3.86;97.71;99955.16;5020896;28;20129;-67
2021/01/03 12:27:20;;;;;;;34.28;18.95;;;;;;;3.84;97.19;99950.00;5036011;28;20164;-66
2021/01/03 12:30:05;;;;;;;27.17;16.83;;;;;;;3.93;97.26;99956.38;5020678;28;20084;-66
2021/01/03 12:32:49;;;;;;;28.85;16.75;;;;;;;3.98;97.04;99951.66;5020508;28;20048;-67
2021/01/03 12:35:33;;;;;;;27.50;17.27;;;;;;;4.03;96.35;99954.78;5020677;28;20075;-66
2021/01/03 12:38:17;;;;;;;31.70;18.45;;;;;;;4.13;96.66;99961.94;5020714;28;20527;-65
2021/01/03 12:41:02;;;;;;;27.23;17.33;;;;;;;4.23;96.08;99964.72;5020358;28;20107;-67
2021/01/03 12:43:47;;;;;;;28.88;17.60;;;;;;;4.30;94.72;99958.06;5020392;28;20076;-66
2021/01/03 12:46:44;;;;;;;28.38;17.05;;;;;;;4.27;94.98;99958.28;5020536;28;20083;-66
2021/01/03 12:49:29;;;;;;;26.23;16.10;;;;;;;4.41;94.34;99960.75;5035437;28;20049;-66
2021/01/03 12:52:13;;;;;;;28.67;17.88;;;;;;;4.46;93.40;99963.91;5035310;28;20573;-64
2021/01/03 12:54:57;;;;;;;27.90;17.27;;;;;;;4.48;93.93;99967.25;5035196;28;20056;-66
2021/01/03 12:57:41;;;;;;;26.80;16.88;;;;;;;4.61;94.14;99957.47;5034961;28;20172;-66
2021/01/03 13:00:25;;;;;;;28.83;17.45;;;;;;;4.73;94.10;99965.31;5020277;28;20053;-66
2021/01/03 13:03:09;;;;;;;25.27;16.08;;;;;;;4.82;93.44;99959.34;5035216;28;20044;-67
2021/01/03 13:05:53;;;;;;;24.10;15.82;;;;;;;4.92;91.99;99956.84;5020183;28;20059;-67